Terminal Aerodrome Forecast
Issued by NWS

Home | Current Version | Previous Version | Graphics & Text | Print | Product List | Glossary On
Versions: 1 2 3 4 5 6 7 8 9 10 11 12 13 14 15 16 17 18
000
FTUS43 KTOP 310300 AAA
TAFFOE
TAF AMD
KFOE 310330Z 3104/3124 36007KT P6SM SCT025 OVC035
     FM310700 02006KT 5SM BR SCT007 OVC012
     FM311500 05007KT P6SM SCT018
     FM311800 07007KT P6SM FEW040=

USA.gov is the U.S. government's official web portal to all federal, state and local government web resources and services.